createdAt,value
2019-03-23T00:01:35.054Z,7.94
2019-03-23T00:04:07.172Z,7.98
2019-03-23T00:06:39.446Z,7.92
2019-03-23T00:09:12.444Z,7.90
2019-03-23T00:11:44.528Z,7.85
2019-03-23T00:14:16.923Z,7.80
2019-03-23T00:16:49.004Z,7.75
2019-03-23T00:19:21.448Z,7.68
2019-03-23T00:21:53.825Z,7.67
2019-03-23T00:24:27.066Z,7.65
2019-03-23T00:26:59.525Z,7.65
2019-03-23T00:29:31.730Z,7.59
2019-03-23T00:32:04.161Z,7.48
2019-03-23T00:34:36.190Z,7.54
2019-03-23T00:37:08.890Z,7.47
2019-03-23T00:46:18.638Z,7.38
2019-03-23T00:48:50.744Z,7.32
2019-03-23T00:51:22.824Z,7.29
2019-03-23T00:53:56.088Z,7.28
2019-03-23T00:56:28.151Z,7.21
2019-03-23T00:59:00.231Z,7.17
2019-03-23T01:01:40.537Z,7.14
2019-03-23T01:04:22.101Z,7.10
2019-03-23T01:06:54.382Z,7.04
2019-03-23T01:09:26.817Z,7.03
2019-03-23T01:12:02.538Z,6.96
2019-03-23T01:14:42.646Z,6.95
2019-03-23T01:17:16.395Z,6.90
2019-03-23T01:19:58.895Z,6.87
2019-03-23T01:22:32.664Z,6.82
2019-03-23T01:25:05.212Z,6.82
2019-03-23T01:27:41.244Z,6.79
2019-03-23T01:30:13.957Z,6.72
2019-03-23T01:32:46.633Z,6.70
2019-03-23T01:35:18.703Z,6.65
2019-03-23T01:37:51.431Z,6.61
2019-03-23T01:40:24.281Z,6.58
2019-03-23T01:42:58.071Z,6.53
2019-03-23T01:45:30.498Z,6.51
2019-03-23T01:48:02.584Z,6.50
2019-03-23T01:50:35.710Z,6.45
2019-03-23T01:53:11.104Z,6.38
2019-03-23T01:55:43.533Z,6.34
2019-03-23T01:58:15.646Z,6.29
2019-03-23T02:00:47.697Z,6.30
2019-03-23T02:03:19.803Z,6.09
2019-03-23T02:05:52.086Z,6.12
2019-03-23T02:08:24.221Z,6.08
2019-03-23T02:10:56.487Z,6.09
2019-03-23T02:13:29.054Z,5.80
2019-03-23T02:16:02.155Z,5.73
2019-03-23T02:18:34.642Z,5.65
2019-03-23T02:21:06.674Z,5.62
2019-03-23T02:23:38.803Z,5.74
2019-03-23T02:26:10.863Z,5.75
2019-03-23T02:28:43.259Z,5.75
2019-03-23T02:31:15.680Z,5.79
2019-03-23T02:33:47.747Z,5.78
2019-03-23T02:36:20.027Z,5.73
2019-03-23T02:38:52.595Z,5.74
2019-03-23T02:41:24.761Z,5.70
2019-03-23T02:43:57.470Z,5.68
2019-03-23T02:46:30.277Z,5.64
2019-03-23T02:49:02.375Z,5.58
2019-03-23T02:51:35.143Z,5.58
2019-03-23T02:54:07.709Z,5.55
2019-03-23T02:56:40.773Z,5.52
2019-03-23T02:59:13.206Z,5.50
2019-03-23T03:01:45.288Z,5.50
2019-03-23T03:04:17.702Z,5.46
2019-03-23T03:06:50.099Z,5.43
2019-03-23T03:09:22.240Z,5.42
2019-03-23T03:11:54.328Z,5.40
2019-03-23T03:14:26.438Z,5.35
2019-03-23T03:16:58.915Z,5.31
2019-03-23T03:19:31.359Z,5.33
2019-03-23T03:22:03.436Z,5.27
2019-03-23T03:24:35.902Z,5.24
2019-03-23T03:27:08.322Z,5.17
2019-03-23T03:29:40.395Z,5.12
2019-03-23T03:32:12.869Z,5.10
2019-03-23T03:34:44.984Z,5.08
2019-03-23T03:37:17.381Z,5.07
2019-03-23T03:39:49.853Z,5.07
2019-03-23T03:42:22.312Z,5.01
2019-03-23T03:44:54.880Z,4.98
2019-03-23T03:47:27.328Z,5.00
2019-03-23T03:49:59.404Z,5.02
2019-03-23T03:52:31.478Z,5.10
2019-03-23T03:55:03.614Z,5.01
2019-03-23T03:57:35.684Z,5.00
2019-03-23T04:00:08.323Z,5.05
2019-03-23T04:02:40.666Z,5.04
2019-03-23T04:05:13.286Z,4.99
2019-03-23T04:07:45.380Z,4.92
2019-03-23T04:10:17.519Z,4.95
2019-03-23T04:12:50.555Z,4.89
2019-03-23T04:15:22.733Z,4.86
2019-03-23T04:17:55.231Z,4.84
2019-03-23T04:20:27.379Z,4.79
2019-03-23T04:22:59.466Z,4.98
2019-03-23T04:25:31.617Z,4.90
2019-03-23T04:28:04.029Z,5.34
2019-03-23T04:30:36.382Z,5.45
2019-03-23T04:33:09.226Z,5.75
2019-03-23T04:35:41.456Z,6.04
2019-03-23T04:38:22.509Z,6.01
2019-03-23T04:40:48.330Z,5.90
2019-03-23T04:43:20.388Z,6.01
2019-03-23T04:45:53.186Z,5.92
2019-03-23T04:48:26.131Z,5.54
2019-03-23T04:50:58.595Z,5.63
2019-03-23T04:53:30.947Z,5.57
2019-03-23T04:56:03.499Z,5.70
2019-03-23T04:58:36.273Z,5.63
2019-03-23T05:01:08.652Z,5.53
2019-03-23T05:03:40.798Z,5.57
2019-03-23T05:06:12.894Z,5.52
2019-03-23T05:08:45.029Z,5.45
2019-03-23T05:11:17.129Z,5.64
2019-03-23T05:13:49.874Z,5.88
2019-03-23T05:16:22.671Z,5.92
2019-03-23T05:18:55.170Z,5.69
2019-03-23T05:21:27.208Z,5.65
2019-03-23T05:23:59.877Z,5.76
2019-03-23T05:26:32.327Z,5.95
2019-03-23T05:29:04.778Z,5.63
2019-03-23T05:31:37.122Z,5.60
2019-03-23T05:34:09.400Z,5.52
2019-03-23T05:36:42.406Z,5.46
2019-03-23T05:39:14.608Z,5.50
2019-03-23T05:41:47.071Z,5.59
2019-03-23T05:44:19.156Z,5.50
2019-03-23T05:46:51.235Z,5.62
2019-03-23T05:49:23.378Z,5.75
2019-03-23T05:51:56.446Z,5.84
2019-03-23T05:54:29.390Z,5.89
2019-03-23T05:57:01.854Z,5.76
2019-03-23T05:59:34.258Z,5.82
2019-03-23T06:02:06.759Z,6.05
2019-03-23T06:04:39.971Z,6.04
2019-03-23T06:07:12.292Z,6.04
2019-03-23T06:09:44.713Z,5.98
2019-03-23T06:12:17.780Z,6.03
2019-03-23T06:14:51.535Z,6.04
2019-03-23T06:17:23.929Z,6.14
2019-03-23T06:19:56.376Z,6.20
2019-03-23T06:22:28.477Z,6.22
2019-03-23T06:25:00.555Z,6.31
2019-03-23T06:27:33.086Z,6.33
2019-03-23T06:30:06.026Z,6.43
2019-03-23T06:32:38.490Z,6.44
2019-03-23T06:35:11.496Z,6.49
2019-03-23T06:37:44.985Z,6.51
2019-03-23T06:40:17.126Z,6.59
2019-03-23T06:42:59.156Z,6.68
2019-03-23T06:45:24.312Z,6.74
2019-03-23T06:47:56.835Z,6.84
2019-03-23T06:50:29.284Z,6.87
2019-03-23T06:53:01.724Z,6.97
2019-03-23T06:55:34.178Z,6.99
2019-03-23T06:58:06.721Z,7.05
2019-03-23T07:00:38.814Z,7.07
2019-03-23T07:03:11.041Z,7.13
2019-03-23T07:05:43.215Z,7.15
2019-03-23T07:08:16.219Z,7.22
2019-03-23T07:10:48.383Z,7.28
2019-03-23T07:13:20.499Z,7.31
2019-03-23T07:15:52.979Z,7.35
2019-03-23T07:18:25.791Z,7.31
2019-03-23T07:20:57.918Z,7.33
2019-03-23T07:23:30.762Z,7.41
2019-03-23T07:26:02.909Z,7.39
2019-03-23T07:28:34.985Z,7.47
2019-03-23T07:31:07.139Z,7.47
2019-03-23T07:33:39.280Z,7.49
2019-03-23T07:36:11.394Z,7.53
2019-03-23T07:38:43.896Z,7.51
2019-03-23T07:41:16.055Z,7.51
2019-03-23T07:43:48.495Z,7.55
2019-03-23T07:46:20.591Z,7.46
2019-03-23T07:48:52.719Z,7.48
2019-03-23T07:51:25.203Z,7.48
2019-03-23T07:53:58.208Z,7.48
2019-03-23T07:56:30.726Z,7.50
2019-03-23T07:59:03.451Z,7.50
2019-03-23T08:01:35.884Z,7.51
2019-03-23T08:04:08.101Z,7.56
2019-03-23T08:06:40.875Z,7.52
2019-03-23T08:09:20.414Z,7.52
2019-03-23T08:11:46.799Z,7.55
2019-03-23T08:14:19.285Z,7.58
2019-03-23T08:16:51.418Z,7.61
2019-03-23T08:19:24.139Z,7.63
2019-03-23T08:21:56.516Z,7.64
2019-03-23T08:24:28.987Z,7.73
2019-03-23T08:27:01.443Z,7.73
2019-03-23T08:29:34.232Z,7.82
2019-03-23T08:32:06.297Z,7.75
2019-03-23T08:34:38.720Z,7.76
2019-03-23T08:37:11.812Z,7.70
2019-03-23T08:39:48.677Z,7.80
2019-03-23T08:42:18.401Z,7.83
2019-03-23T08:44:51.024Z,7.79
2019-03-23T08:47:23.510Z,7.85
2019-03-23T08:49:55.965Z,7.89
2019-03-23T08:52:29.026Z,7.86
2019-03-23T08:55:01.602Z,7.81
2019-03-23T08:57:33.730Z,7.87
2019-03-23T09:00:06.894Z,7.88
2019-03-23T09:02:38.969Z,7.86
2019-03-23T09:05:11.356Z,7.86
2019-03-23T09:07:43.436Z,8.03
2019-03-23T09:10:15.845Z,8.16
2019-03-23T09:12:48.074Z,8.12
2019-03-23T09:15:20.172Z,8.13
2019-03-23T09:17:52.262Z,8.09
2019-03-23T09:20:24.654Z,8.11
2019-03-23T09:22:57.398Z,7.98
2019-03-23T09:25:30.334Z,8.16
2019-03-23T09:28:02.500Z,8.18
2019-03-23T09:30:34.642Z,8.31
2019-03-23T09:33:06.743Z,8.11
2019-03-23T09:35:39.474Z,8.13
2019-03-23T09:38:11.821Z,8.09
2019-03-23T09:40:43.881Z,8.19
2019-03-23T09:43:16.368Z,8.25
2019-03-23T09:45:48.844Z,8.22
2019-03-23T09:48:21.288Z,8.29
2019-03-23T09:50:53.436Z,8.18
2019-03-23T09:53:25.529Z,8.20
2019-03-23T09:55:57.737Z,8.27
2019-03-23T09:58:29.869Z,8.22
2019-03-23T10:01:02.183Z,8.32
2019-03-23T10:03:34.605Z,8.33
2019-03-23T10:06:07.428Z,8.29
2019-03-23T10:08:39.922Z,8.36
2019-03-23T10:11:12.351Z,8.31
2019-03-23T10:13:46.152Z,8.32
2019-03-23T10:16:18.848Z,8.15
2019-03-23T10:18:51.300Z,8.24
2019-03-23T10:21:23.389Z,8.23
2019-03-23T10:23:55.884Z,8.35
2019-03-23T10:26:28.437Z,8.34
2019-03-23T10:29:01.333Z,8.34
2019-03-23T10:31:33.430Z,8.27
2019-03-23T10:34:05.534Z,8.44
2019-03-23T10:36:37.702Z,8.40
2019-03-23T10:39:09.825Z,8.48
2019-03-23T10:41:41.903Z,8.46
2019-03-23T10:44:14.409Z,8.51
2019-03-23T10:46:46.536Z,8.63
2019-03-23T10:49:18.613Z,8.62
2019-03-23T10:51:50.739Z,8.59
2019-03-23T10:54:22.813Z,8.74
2019-03-23T10:56:55.238Z,8.58
2019-03-23T10:59:28.107Z,8.63
2019-03-23T11:02:00.271Z,8.71
2019-03-23T11:04:32.762Z,8.82
2019-03-23T11:07:05.578Z,8.77
2019-03-23T11:09:38.391Z,8.83
2019-03-23T11:12:10.909Z,8.95
2019-03-23T11:14:43.755Z,8.95
2019-03-23T11:17:15.866Z,8.99
2019-03-23T11:19:48.003Z,9.02
2019-03-23T11:22:20.840Z,9.18
2019-03-23T11:24:53.301Z,9.13
2019-03-23T11:27:25.701Z,9.01
2019-03-23T11:29:57.846Z,9.10
2019-03-23T11:32:30.656Z,9.20
2019-03-23T11:35:03.116Z,9.23
2019-03-23T11:37:35.280Z,9.36
2019-03-23T11:40:07.908Z,9.45
2019-03-23T11:42:49.314Z,9.54
2019-03-23T11:45:14.606Z,9.54
2019-03-23T11:47:47.391Z,9.58
2019-03-23T11:50:19.643Z,9.52
2019-03-23T11:52:51.834Z,9.62
2019-03-23T11:55:24.269Z,9.69
2019-03-23T11:57:56.715Z,9.68
2019-03-23T12:00:28.860Z,9.77
2019-03-23T12:03:01.346Z,10.02
2019-03-23T12:05:33.714Z,10.00
2019-03-23T12:08:05.861Z,10.24
2019-03-23T12:10:38.402Z,10.25
2019-03-23T12:13:11.006Z,10.46
2019-03-23T12:15:43.191Z,10.53
2019-03-23T12:18:15.862Z,10.94
2019-03-23T12:20:48.965Z,10.95
2019-03-23T12:23:21.116Z,10.93
2019-03-23T12:25:53.755Z,11.27
2019-03-23T12:28:27.089Z,11.27
2019-03-23T12:30:59.193Z,11.41
2019-03-23T12:33:31.590Z,11.48
2019-03-23T12:36:04.620Z,11.51
2019-03-23T12:38:36.812Z,11.86
2019-03-23T12:41:18.654Z,12.02
2019-03-23T12:43:42.770Z,11.84
2019-03-23T12:46:15.202Z,11.55
2019-03-23T12:48:47.335Z,11.80
2019-03-23T12:51:19.420Z,12.03
2019-03-23T12:53:52.501Z,12.49
2019-03-23T12:56:25.086Z,12.48
2019-03-23T12:58:57.275Z,12.69
2019-03-23T13:01:29.423Z,12.87
2019-03-23T13:04:01.524Z,12.71
2019-03-23T13:06:33.647Z,12.85
2019-03-23T13:09:07.760Z,12.85
2019-03-23T13:11:39.884Z,12.71
2019-03-23T13:14:12.398Z,12.74
2019-03-23T13:16:44.869Z,12.48
2019-03-23T13:19:16.998Z,12.95
2019-03-23T13:21:49.490Z,13.31
2019-03-23T13:24:22.732Z,13.72
2019-03-23T13:26:55.252Z,13.68
2019-03-23T13:29:27.683Z,13.90
2019-03-23T13:32:00.168Z,14.25
2019-03-23T13:34:32.278Z,14.38
2019-03-23T13:37:04.790Z,13.19
2019-03-23T13:39:37.268Z,13.11
2019-03-23T13:42:09.564Z,12.77
2019-03-23T13:44:42.029Z,12.69
2019-03-23T13:47:14.524Z,14.13
2019-03-23T13:49:46.765Z,15.26
2019-03-23T13:52:18.857Z,15.23
2019-03-23T13:54:51.905Z,14.50
2019-03-23T13:57:24.716Z,15.23
2019-03-23T13:59:57.518Z,15.63
2019-03-23T14:02:30.384Z,15.99
2019-03-23T14:05:02.930Z,16.21
2019-03-23T14:07:35.148Z,16.28
2019-03-23T14:10:07.951Z,16.04
2019-03-23T14:12:40.093Z,15.78
2019-03-23T14:15:12.729Z,16.07
2019-03-23T14:17:45.497Z,16.13
2019-03-23T14:20:17.856Z,15.25
2019-03-23T14:22:50.628Z,15.84
2019-03-23T14:25:23.552Z,14.81
2019-03-23T14:27:56.049Z,15.39
2019-03-23T14:30:28.611Z,15.41
2019-03-23T14:33:00.888Z,15.54
2019-03-23T14:35:32.961Z,14.96
2019-03-23T14:38:05.432Z,14.91
2019-03-23T14:40:37.567Z,14.52
2019-03-23T14:43:10.239Z,14.70
2019-03-23T14:45:42.698Z,14.23
2019-03-23T14:48:14.935Z,13.95
2019-03-23T14:50:47.061Z,14.22
2019-03-23T14:53:19.537Z,14.17
2019-03-23T14:55:52.861Z,14.02
2019-03-23T14:58:24.963Z,14.16
2019-03-23T15:00:57.067Z,13.66
2019-03-23T15:03:29.194Z,13.59
2019-03-23T15:06:01.964Z,13.72
2019-03-23T15:08:34.470Z,13.80
2019-03-23T15:11:07.276Z,13.42
2019-03-23T15:13:39.806Z,13.49
2019-03-23T15:16:11.983Z,13.72
2019-03-23T15:18:44.516Z,13.44
2019-03-23T15:21:16.623Z,13.52
2019-03-23T15:23:49.612Z,13.34
2019-03-23T15:26:22.430Z,13.17
2019-03-23T15:28:54.520Z,13.17
2019-03-23T15:31:26.632Z,13.09
2019-03-23T15:33:58.741Z,13.05
2019-03-23T15:36:30.870Z,13.02
2019-03-23T15:39:04.606Z,13.11
2019-03-23T15:41:36.792Z,12.84
2019-03-23T15:44:11.767Z,12.79
2019-03-23T15:46:44.207Z,12.70
2019-03-23T15:49:16.347Z,12.58
2019-03-23T15:51:49.060Z,12.50
2019-03-23T15:54:21.497Z,12.49
2019-03-23T15:56:53.688Z,12.33
2019-03-23T15:59:26.565Z,12.26
2019-03-23T16:01:59.234Z,12.33
2019-03-23T16:04:31.409Z,12.19
2019-03-23T16:07:06.917Z,12.11
2019-03-23T16:09:39.051Z,12.03
2019-03-23T16:12:11.662Z,12.07
2019-03-23T16:14:44.193Z,12.07
2019-03-23T16:17:16.875Z,11.88
2019-03-23T16:19:49.650Z,11.82
2019-03-23T16:22:21.784Z,11.75
2019-03-23T16:24:54.383Z,11.74
2019-03-23T16:27:26.526Z,11.76
2019-03-23T16:29:59.426Z,11.71
2019-03-23T16:32:32.266Z,11.74
2019-03-23T16:35:05.345Z,11.68
2019-03-23T16:37:37.436Z,11.64
2019-03-23T16:40:13.462Z,11.57
2019-03-23T16:42:45.904Z,11.59
2019-03-23T16:45:18.631Z,11.46
2019-03-23T16:47:50.866Z,11.51
2019-03-23T16:50:23.028Z,11.45
2019-03-23T16:52:55.137Z,11.44
2019-03-23T16:55:27.219Z,11.38
2019-03-23T16:57:59.470Z,11.37
2019-03-23T17:00:39.129Z,11.26
2019-03-23T17:03:11.611Z,11.26
2019-03-23T17:05:43.815Z,11.30
2019-03-23T17:08:16.241Z,11.28
2019-03-23T17:10:48.383Z,11.21
2019-03-23T17:13:21.143Z,11.21
2019-03-23T17:15:53.284Z,11.18
2019-03-23T17:18:25.409Z,11.11
2019-03-23T17:20:57.614Z,11.11
2019-03-23T17:23:29.783Z,11.10
2019-03-23T17:26:01.956Z,11.06
2019-03-23T17:28:34.084Z,10.98
2019-03-23T17:31:06.216Z,10.94
2019-03-23T17:33:38.312Z,10.90
2019-03-23T17:36:10.457Z,10.84
2019-03-23T17:38:42.558Z,10.83
2019-03-23T17:41:14.642Z,10.83
2019-03-23T17:43:47.617Z,10.75
2019-03-23T17:46:20.135Z,10.74
2019-03-23T17:48:52.236Z,10.74
2019-03-23T17:51:24.501Z,10.70
2019-03-23T17:53:58.759Z,10.73
2019-03-23T17:56:31.003Z,10.65
2019-03-23T17:59:03.198Z,10.63
2019-03-23T18:01:36.004Z,10.64
2019-03-23T18:04:08.457Z,10.55
2019-03-23T18:06:41.237Z,10.44
2019-03-23T18:09:13.410Z,10.45
2019-03-23T18:11:45.506Z,10.41
2019-03-23T18:14:18.539Z,10.40
2019-03-23T18:16:50.626Z,10.38
2019-03-23T18:19:22.770Z,10.37
2019-03-23T18:21:55.310Z,10.33
2019-03-23T18:24:27.400Z,10.25
2019-03-23T18:27:01.487Z,10.21
2019-03-23T18:29:33.661Z,10.17
2019-03-23T18:32:05.781Z,10.15
2019-03-23T18:34:37.910Z,10.10
2019-03-23T18:37:10.078Z,10.05
2019-03-23T18:39:42.488Z,10.03
2019-03-23T18:42:14.585Z,10.08
2019-03-23T18:44:46.758Z,10.08
2019-03-23T18:47:19.645Z,9.99
2019-03-23T18:49:51.714Z,10.00
2019-03-23T18:52:24.190Z,9.98
2019-03-23T18:54:56.513Z,9.97
2019-03-23T18:57:28.972Z,9.99
2019-03-23T19:00:01.151Z,9.97
2019-03-23T19:02:33.530Z,9.89
2019-03-23T19:05:06.327Z,9.84
2019-03-23T19:07:38.780Z,9.83
2019-03-23T19:10:11.196Z,9.80
2019-03-23T19:12:43.648Z,9.78
2019-03-23T19:15:15.830Z,9.74
2019-03-23T19:17:47.946Z,9.69
2019-03-23T19:20:20.038Z,9.67
2019-03-23T19:22:52.245Z,9.59
2019-03-23T19:25:24.689Z,9.56
2019-03-23T19:27:56.918Z,9.51
2019-03-23T19:36:59.965Z,9.33
2019-03-23T19:39:32.867Z,9.23
2019-03-23T19:42:05.367Z,9.18
2019-03-23T19:44:38.824Z,9.12
2019-03-23T19:47:10.908Z,9.04
2019-03-23T19:49:42.995Z,9.00
2019-03-23T19:52:15.113Z,8.91
2019-03-23T19:54:47.554Z,8.88
2019-03-23T19:57:19.958Z,8.81
2019-03-23T19:59:52.285Z,8.78
2019-03-23T20:02:24.534Z,8.68
2019-03-23T20:04:56.589Z,8.62
2019-03-23T20:07:33.065Z,8.52
2019-03-23T20:10:03.604Z,8.51
2019-03-23T20:12:36.345Z,8.45
2019-03-23T20:15:09.671Z,8.39
2019-03-23T20:17:41.739Z,8.35
2019-03-23T20:20:14.686Z,8.29
2019-03-23T20:22:47.129Z,8.22
2019-03-23T20:25:19.239Z,8.14
2019-03-23T20:27:52.009Z,8.12
2019-03-23T20:30:24.615Z,8.08
2019-03-23T20:32:56.714Z,8.01
2019-03-23T20:35:28.806Z,7.95
2019-03-23T20:38:01.343Z,7.90
2019-03-23T20:40:33.798Z,7.82
2019-03-23T20:43:05.865Z,7.80
2019-03-23T20:45:37.993Z,7.75
2019-03-23T20:48:10.181Z,7.75
2019-03-23T20:50:43.364Z,7.73
2019-03-23T20:53:19.042Z,7.66
2019-03-23T20:55:51.130Z,7.64
2019-03-23T20:58:23.198Z,7.57
2019-03-23T21:00:55.645Z,7.59
2019-03-23T21:03:27.733Z,7.54
2019-03-23T21:05:59.839Z,7.47
2019-03-23T21:08:31.950Z,7.42
2019-03-23T21:11:04.218Z,7.37
2019-03-23T21:13:36.308Z,7.34
2019-03-23T21:16:08.466Z,7.31
2019-03-23T21:18:40.559Z,7.24
2019-03-23T21:21:12.911Z,7.24
2019-03-23T21:23:45.436Z,7.14
2019-03-23T21:26:17.869Z,7.12
2019-03-23T21:28:50.094Z,7.05
2019-03-23T21:31:22.613Z,7.05
2019-03-23T21:33:54.720Z,6.97
2019-03-23T21:36:26.912Z,6.96
2019-03-23T21:38:59.425Z,6.96
2019-03-23T21:41:31.510Z,6.92
2019-03-23T21:44:03.602Z,6.90
2019-03-23T21:46:35.841Z,6.79
2019-03-23T21:49:07.918Z,6.76
2019-03-23T21:51:40.452Z,6.72
2019-03-23T21:54:12.686Z,6.66
2019-03-23T21:56:45.085Z,6.54
2019-03-23T21:59:17.608Z,6.62
2019-03-23T22:01:50.032Z,6.53
2019-03-23T22:04:22.193Z,6.50
2019-03-23T22:06:54.301Z,6.44
2019-03-23T22:09:26.745Z,6.37
2019-03-23T22:11:59.822Z,6.34
2019-03-23T22:14:41.296Z,6.33
2019-03-23T22:17:06.092Z,6.24
2019-03-23T22:19:38.148Z,6.12
2019-03-23T22:22:10.240Z,6.12
2019-03-23T22:24:42.544Z,6.13
2019-03-23T22:27:14.718Z,6.07
2019-03-23T22:29:47.183Z,6.03
2019-03-23T22:32:19.276Z,6.00
2019-03-23T22:34:51.743Z,5.94
2019-03-23T22:37:23.816Z,5.93
2019-03-23T22:39:56.006Z,5.87
2019-03-23T22:42:28.232Z,5.79
2019-03-23T22:45:00.965Z,5.76
2019-03-23T22:47:33.325Z,5.86
2019-03-23T22:50:06.189Z,5.68
2019-03-23T22:52:38.387Z,5.70
2019-03-23T22:55:11.130Z,5.56
2019-03-23T22:57:43.562Z,5.55
2019-03-23T23:00:19.064Z,5.53
2019-03-23T23:02:51.540Z,5.43
2019-03-23T23:05:23.600Z,5.45
2019-03-23T23:07:55.687Z,5.35
2019-03-23T23:10:28.115Z,5.28
2019-03-23T23:13:00.562Z,5.29
2019-03-23T23:15:33.077Z,5.22
2019-03-23T23:18:05.748Z,5.13
2019-03-23T23:20:37.841Z,5.08
2019-03-23T23:23:16.472Z,4.99
2019-03-23T23:25:56.992Z,4.98
2019-03-23T23:28:34.181Z,4.87
2019-03-23T23:31:07.883Z,4.78
2019-03-23T23:33:40.361Z,4.66
2019-03-23T23:36:15.097Z,4.55
2019-03-23T23:38:52.452Z,4.46
2019-03-23T23:41:28.077Z,4.47
2019-03-23T23:44:01.323Z,4.38
2019-03-23T23:46:37.990Z,4.30
2019-03-23T23:49:11.918Z,4.26
2019-03-23T23:51:50.131Z,4.24
2019-03-23T23:54:19.766Z,4.15
2019-03-23T23:56:53.254Z,4.07
2019-03-23T23:59:27.689Z,4.00
